sensor_id;sensor_type;location;lat;lon;timestamp;P1;durP1;ratioP1;P2;durP2;ratioP2
7239;SDS011;3661;53.288;10.458;2023-07-29T00:01:43;1999.90;;;999.90;;
7239;SDS011;3661;53.288;10.458;2023-07-29T00:04:15;1999.90;;;999.90;;
7239;SDS011;3661;53.288;10.458;2023-07-29T00:06:48;1999.90;;;999.90;;
7239;SDS011;3661;53.288;10.458;2023-07-29T00:09:20;1999.90;;;999.90;;
7239;SDS011;3661;53.288;10.458;2023-07-29T00:11:52;1999.90;;;999.90;;
7239;SDS011;3661;53.288;10.458;2023-07-29T00:14:26;1999.90;;;999.90;;
7239;SDS011;3661;53.288;10.458;2023-07-29T00:16:59;1999.90;;;999.90;;
7239;SDS011;3661;53.288;10.458;2023-07-29T00:19:31;1999.90;;;999.90;;
7239;SDS011;3661;53.288;10.458;2023-07-29T00:22:04;1999.90;;;999.90;;
7239;SDS011;3661;53.288;10.458;2023-07-29T00:24:39;1999.90;;;999.90;;
7239;SDS011;3661;53.288;10.458;2023-07-29T00:27:13;1999.90;;;999.90;;
7239;SDS011;3661;53.288;10.458;2023-07-29T00:29:48;1999.90;;;999.90;;
7239;SDS011;3661;53.288;10.458;2023-07-29T00:32:22;1999.90;;;999.90;;
7239;SDS011;3661;53.288;10.458;2023-07-29T00:34:55;1999.90;;;999.90;;
7239;SDS011;3661;53.288;10.458;2023-07-29T00:37:27;1999.90;;;999.90;;
7239;SDS011;3661;53.288;10.458;2023-07-29T00:40:00;1999.90;;;999.90;;
7239;SDS011;3661;53.288;10.458;2023-07-29T00:42:33;1999.90;;;999.90;;
7239;SDS011;3661;53.288;10.458;2023-07-29T00:45:08;1985.22;;;999.90;;
7239;SDS011;3661;53.288;10.458;2023-07-29T00:47:40;1999.90;;;999.90;;
7239;SDS011;3661;53.288;10.458;2023-07-29T00:50:14;1999.90;;;999.90;;
7239;SDS011;3661;53.288;10.458;2023-07-29T00:52:46;1999.90;;;999.90;;
7239;SDS011;3661;53.288;10.458;2023-07-29T00:55:20;1999.90;;;999.90;;
7239;SDS011;3661;53.288;10.458;2023-07-29T00:57:52;1999.90;;;999.90;;
7239;SDS011;3661;53.288;10.458;2023-07-29T01:00:27;1999.90;;;999.90;;
7239;SDS011;3661;53.288;10.458;2023-07-29T01:03:00;1999.90;;;999.90;;
7239;SDS011;3661;53.288;10.458;2023-07-29T01:05:34;1999.90;;;999.90;;
7239;SDS011;3661;53.288;10.458;2023-07-29T01:08:13;1999.90;;;999.90;;
7239;SDS011;3661;53.288;10.458;2023-07-29T01:10:54;1985.45;;;999.90;;
7239;SDS011;3661;53.288;10.458;2023-07-29T01:13:44;1994.93;;;999.90;;
7239;SDS011;3661;53.288;10.458;2023-07-29T01:16:25;1987.25;;;999.90;;
7239;SDS011;3661;53.288;10.458;2023-07-29T01:19:04;1970.57;;;999.90;;
7239;SDS011;3661;53.288;10.458;2023-07-29T01:21:38;1990.35;;;999.90;;
7239;SDS011;3661;53.288;10.458;2023-07-29T01:24:12;1978.22;;;999.90;;
7239;SDS011;3661;53.288;10.458;2023-07-29T01:26:44;1984.13;;;999.90;;
7239;SDS011;3661;53.288;10.458;2023-07-29T01:29:19;1979.27;;;999.90;;
7239;SDS011;3661;53.288;10.458;2023-07-29T01:31:52;1992.87;;;999.90;;
7239;SDS011;3661;53.288;10.458;2023-07-29T01:34:32;1987.72;;;999.90;;
7239;SDS011;3661;53.288;10.458;2023-07-29T01:37:13;1975.85;;;999.90;;
7239;SDS011;3661;53.288;10.458;2023-07-29T01:39:52;1961.28;;;999.90;;
7239;SDS011;3661;53.288;10.458;2023-07-29T01:42:28;1975.78;;;999.90;;
7239;SDS011;3661;53.288;10.458;2023-07-29T01:45:02;1992.17;;;999.90;;
7239;SDS011;3661;53.288;10.458;2023-07-29T01:47:36;1977.95;;;999.90;;
7239;SDS011;3661;53.288;10.458;2023-07-29T01:50:10;1959.55;;;999.90;;
7239;SDS011;3661;53.288;10.458;2023-07-29T01:52:43;1997.00;;;999.90;;
7239;SDS011;3661;53.288;10.458;2023-07-29T01:55:18;1989.10;;;999.90;;
7239;SDS011;3661;53.288;10.458;2023-07-29T01:57:50;1967.00;;;999.90;;
7239;SDS011;3661;53.288;10.458;2023-07-29T02:00:23;1983.65;;;999.90;;
7239;SDS011;3661;53.288;10.458;2023-07-29T02:02:55;1975.70;;;999.90;;
7239;SDS011;3661;53.288;10.458;2023-07-29T02:05:27;1979.05;;;999.90;;
7239;SDS011;3661;53.288;10.458;2023-07-29T02:07:59;1973.82;;;999.90;;
7239;SDS011;3661;53.288;10.458;2023-07-29T02:10:33;1964.80;;;999.90;;
7239;SDS011;3661;53.288;10.458;2023-07-29T02:13:05;1988.63;;;999.90;;
7239;SDS011;3661;53.288;10.458;2023-07-29T02:15:37;1976.20;;;999.90;;
7239;SDS011;3661;53.288;10.458;2023-07-29T02:18:09;1974.38;;;999.90;;
7239;SDS011;3661;53.288;10.458;2023-07-29T02:20:42;1988.28;;;999.90;;
7239;SDS011;3661;53.288;10.458;2023-07-29T02:23:19;1977.50;;;999.90;;
7239;SDS011;3661;53.288;10.458;2023-07-29T02:25:52;1978.07;;;999.90;;
7239;SDS011;3661;53.288;10.458;2023-07-29T02:28:25;1968.85;;;999.90;;
7239;SDS011;3661;53.288;10.458;2023-07-29T02:31:09;1981.90;;;999.90;;
7239;SDS011;3661;53.288;10.458;2023-07-29T02:33:45;1967.15;;;999.90;;
7239;SDS011;3661;53.288;10.458;2023-07-29T02:36:18;1979.40;;;999.90;;
7239;SDS011;3661;53.288;10.458;2023-07-29T02:38:50;1967.25;;;999.90;;
7239;SDS011;3661;53.288;10.458;2023-07-29T02:41:24;1972.40;;;999.90;;
7239;SDS011;3661;53.288;10.458;2023-07-29T02:43:56;1976.80;;;999.90;;
7239;SDS011;3661;53.288;10.458;2023-07-29T02:46:28;1951.15;;;999.90;;
7239;SDS011;3661;53.288;10.458;2023-07-29T02:49:01;1984.73;;;999.90;;
7239;SDS011;3661;53.288;10.458;2023-07-29T02:51:34;1971.00;;;999.90;;
7239;SDS011;3661;53.288;10.458;2023-07-29T02:54:06;1955.20;;;999.90;;
7239;SDS011;3661;53.288;10.458;2023-07-29T02:56:40;1990.45;;;999.90;;
7239;SDS011;3661;53.288;10.458;2023-07-29T02:59:12;1969.15;;;999.90;;
7239;SDS011;3661;53.288;10.458;2023-07-29T03:01:44;1968.95;;;999.90;;
7239;SDS011;3661;53.288;10.458;2023-07-29T03:04:17;1957.43;;;999.90;;
7239;SDS011;3661;53.288;10.458;2023-07-29T03:06:49;1958.77;;;999.90;;
7239;SDS011;3661;53.288;10.458;2023-07-29T03:09:22;1963.30;;;999.90;;
7239;SDS011;3661;53.288;10.458;2023-07-29T03:11:56;1937.75;;;999.90;;
7239;SDS011;3661;53.288;10.458;2023-07-29T03:14:28;1952.38;;;999.90;;
7239;SDS011;3661;53.288;10.458;2023-07-29T03:17:02;1971.68;;;999.90;;
7239;SDS011;3661;53.288;10.458;2023-07-29T03:19:35;1956.75;;;999.90;;
7239;SDS011;3661;53.288;10.458;2023-07-29T03:22:07;1958.38;;;999.90;;
7239;SDS011;3661;53.288;10.458;2023-07-29T03:24:39;1953.43;;;999.90;;
7239;SDS011;3661;53.288;10.458;2023-07-29T03:27:14;1963.65;;;999.90;;
7239;SDS011;3661;53.288;10.458;2023-07-29T03:29:46;1962.97;;;999.90;;
7239;SDS011;3661;53.288;10.458;2023-07-29T03:32:18;1954.07;;;999.90;;
7239;SDS011;3661;53.288;10.458;2023-07-29T03:34:50;1972.80;;;999.90;;
7239;SDS011;3661;53.288;10.458;2023-07-29T03:37:23;1977.20;;;999.90;;
7239;SDS011;3661;53.288;10.458;2023-07-29T03:39:55;1958.53;;;999.90;;
7239;SDS011;3661;53.288;10.458;2023-07-29T03:42:28;1950.05;;;999.90;;
7239;SDS011;3661;53.288;10.458;2023-07-29T03:45:01;1968.30;;;999.90;;
7239;SDS011;3661;53.288;10.458;2023-07-29T03:47:34;1944.82;;;999.90;;
7239;SDS011;3661;53.288;10.458;2023-07-29T03:50:07;1976.75;;;999.90;;
7239;SDS011;3661;53.288;10.458;2023-07-29T03:52:42;1960.03;;;999.90;;
7239;SDS011;3661;53.288;10.458;2023-07-29T03:55:14;1970.22;;;999.90;;
7239;SDS011;3661;53.288;10.458;2023-07-29T03:57:48;1953.47;;;999.90;;
7239;SDS011;3661;53.288;10.458;2023-07-29T04:00:22;1944.43;;;999.90;;
7239;SDS011;3661;53.288;10.458;2023-07-29T04:02:54;1939.10;;;999.90;;
7239;SDS011;3661;53.288;10.458;2023-07-29T04:05:27;1971.95;;;999.90;;
7239;SDS011;3661;53.288;10.458;2023-07-29T04:07:59;1961.68;;;999.90;;
7239;SDS011;3661;53.288;10.458;2023-07-29T04:10:33;1938.97;;;999.90;;
7239;SDS011;3661;53.288;10.458;2023-07-29T04:13:06;1959.38;;;999.90;;
7239;SDS011;3661;53.288;10.458;2023-07-29T04:15:39;1952.95;;;999.90;;
7239;SDS011;3661;53.288;10.458;2023-07-29T04:18:11;1971.15;;;999.90;;
7239;SDS011;3661;53.288;10.458;2023-07-29T04:20:43;1955.05;;;999.90;;
7239;SDS011;3661;53.288;10.458;2023-07-29T04:23:18;1929.15;;;999.90;;
7239;SDS011;3661;53.288;10.458;2023-07-29T04:25:53;1936.50;;;999.90;;
7239;SDS011;3661;53.288;10.458;2023-07-29T04:28:26;1937.55;;;999.90;;
7239;SDS011;3661;53.288;10.458;2023-07-29T04:30:59;1948.78;;;999.90;;
7239;SDS011;3661;53.288;10.458;2023-07-29T04:33:31;1960.00;;;999.90;;
7239;SDS011;3661;53.288;10.458;2023-07-29T04:36:04;1952.50;;;999.90;;
7239;SDS011;3661;53.288;10.458;2023-07-29T04:38:36;1952.07;;;999.90;;
7239;SDS011;3661;53.288;10.458;2023-07-29T04:41:09;1947.93;;;999.90;;
7239;SDS011;3661;53.288;10.458;2023-07-29T04:43:42;1956.38;;;999.90;;
7239;SDS011;3661;53.288;10.458;2023-07-29T04:46:15;1957.93;;;999.90;;
7239;SDS011;3661;53.288;10.458;2023-07-29T04:48:47;1943.43;;;999.90;;
7239;SDS011;3661;53.288;10.458;2023-07-29T04:51:20;1973.63;;;999.90;;
7239;SDS011;3661;53.288;10.458;2023-07-29T04:53:55;1948.70;;;999.90;;
7239;SDS011;3661;53.288;10.458;2023-07-29T04:56:28;1970.97;;;999.90;;
7239;SDS011;3661;53.288;10.458;2023-07-29T04:59:01;1974.93;;;999.90;;
7239;SDS011;3661;53.288;10.458;2023-07-29T05:01:34;1964.18;;;999.90;;
7239;SDS011;3661;53.288;10.458;2023-07-29T05:04:06;1981.60;;;999.90;;
7239;SDS011;3661;53.288;10.458;2023-07-29T05:06:38;1969.70;;;999.90;;
7239;SDS011;3661;53.288;10.458;2023-07-29T05:09:14;1959.33;;;999.90;;
7239;SDS011;3661;53.288;10.458;2023-07-29T05:11:46;1962.22;;;999.90;;
7239;SDS011;3661;53.288;10.458;2023-07-29T05:14:21;1981.57;;;999.90;;
7239;SDS011;3661;53.288;10.458;2023-07-29T05:16:53;1977.47;;;999.90;;
7239;SDS011;3661;53.288;10.458;2023-07-29T05:19:27;1964.18;;;999.90;;
7239;SDS011;3661;53.288;10.458;2023-07-29T05:21:59;1960.50;;;999.90;;
7239;SDS011;3661;53.288;10.458;2023-07-29T05:24:32;1981.40;;;999.90;;
7239;SDS011;3661;53.288;10.458;2023-07-29T05:27:05;1985.70;;;999.90;;
7239;SDS011;3661;53.288;10.458;2023-07-29T05:29:40;1967.22;;;999.90;;
7239;SDS011;3661;53.288;10.458;2023-07-29T05:32:12;1993.20;;;999.90;;
7239;SDS011;3661;53.288;10.458;2023-07-29T05:34:44;1973.10;;;999.90;;
7239;SDS011;3661;53.288;10.458;2023-07-29T05:37:16;1985.68;;;999.90;;
7239;SDS011;3661;53.288;10.458;2023-07-29T05:39:48;1988.93;;;999.90;;
7239;SDS011;3661;53.288;10.458;2023-07-29T05:42:20;1999.90;;;999.90;;
7239;SDS011;3661;53.288;10.458;2023-07-29T05:44:54;1976.40;;;999.90;;
7239;SDS011;3661;53.288;10.458;2023-07-29T05:47:29;1994.38;;;999.90;;
7239;SDS011;3661;53.288;10.458;2023-07-29T05:50:05;1999.90;;;999.90;;
7239;SDS011;3661;53.288;10.458;2023-07-29T05:52:37;1995.47;;;999.90;;
7239;SDS011;3661;53.288;10.458;2023-07-29T05:55:10;1979.65;;;999.90;;
7239;SDS011;3661;53.288;10.458;2023-07-29T05:57:49;1999.53;;;999.90;;
7239;SDS011;3661;53.288;10.458;2023-07-29T06:00:23;1999.90;;;999.90;;
7239;SDS011;3661;53.288;10.458;2023-07-29T06:02:55;1999.90;;;999.90;;
7239;SDS011;3661;53.288;10.458;2023-07-29T06:05:27;1999.90;;;999.90;;
7239;SDS011;3661;53.288;10.458;2023-07-29T06:07:59;1999.90;;;999.90;;
7239;SDS011;3661;53.288;10.458;2023-07-29T06:10:32;1999.90;;;999.90;;
7239;SDS011;3661;53.288;10.458;2023-07-29T06:13:04;1999.38;;;999.90;;
7239;SDS011;3661;53.288;10.458;2023-07-29T06:15:38;1999.90;;;999.90;;
7239;SDS011;3661;53.288;10.458;2023-07-29T06:18:10;1999.90;;;999.90;;
7239;SDS011;3661;53.288;10.458;2023-07-29T06:20:45;1999.90;;;999.90;;
7239;SDS011;3661;53.288;10.458;2023-07-29T06:23:17;1999.90;;;999.90;;
7239;SDS011;3661;53.288;10.458;2023-07-29T06:25:49;1999.90;;;999.90;;
7239;SDS011;3661;53.288;10.458;2023-07-29T06:28:21;1999.90;;;999.90;;
7239;SDS011;3661;53.288;10.458;2023-07-29T06:30:55;1999.90;;;999.90;;
7239;SDS011;3661;53.288;10.458;2023-07-29T06:33:27;1999.90;;;999.90;;
7239;SDS011;3661;53.288;10.458;2023-07-29T06:35:59;1999.90;;;999.90;;
7239;SDS011;3661;53.288;10.458;2023-07-29T06:38:31;1999.90;;;999.90;;
7239;SDS011;3661;53.288;10.458;2023-07-29T06:41:03;1999.90;;;999.90;;
7239;SDS011;3661;53.288;10.458;2023-07-29T06:43:36;1999.90;;;999.90;;
7239;SDS011;3661;53.288;10.458;2023-07-29T06:46:11;1999.90;;;999.90;;
7239;SDS011;3661;53.288;10.458;2023-07-29T06:48:44;1999.90;;;999.90;;
7239;SDS011;3661;53.288;10.458;2023-07-29T06:51:16;1999.90;;;999.90;;
7239;SDS011;3661;53.288;10.458;2023-07-29T06:53:48;1999.90;;;999.90;;
7239;SDS011;3661;53.288;10.458;2023-07-29T06:56:21;1999.90;;;999.90;;
7239;SDS011;3661;53.288;10.458;2023-07-29T06:58:53;1999.90;;;999.90;;
7239;SDS011;3661;53.288;10.458;2023-07-29T07:01:27;1999.90;;;999.90;;
7239;SDS011;3661;53.288;10.458;2023-07-29T07:03:59;1999.90;;;999.90;;
7239;SDS011;3661;53.288;10.458;2023-07-29T07:06:31;1999.90;;;999.90;;
7239;SDS011;3661;53.288;10.458;2023-07-29T07:09:03;1999.90;;;999.90;;
7239;SDS011;3661;53.288;10.458;2023-07-29T07:11:35;1999.90;;;999.90;;
7239;SDS011;3661;53.288;10.458;2023-07-29T07:14:08;1999.90;;;999.90;;
7239;SDS011;3661;53.288;10.458;2023-07-29T07:16:41;1999.90;;;999.90;;
7239;SDS011;3661;53.288;10.458;2023-07-29T07:19:14;1999.90;;;999.90;;
7239;SDS011;3661;53.288;10.458;2023-07-29T07:21:46;1999.90;;;999.90;;
7239;SDS011;3661;53.288;10.458;2023-07-29T07:24:18;1999.90;;;999.90;;
7239;SDS011;3661;53.288;10.458;2023-07-29T07:26:50;1999.90;;;999.90;;
7239;SDS011;3661;53.288;10.458;2023-07-29T07:29:22;1999.90;;;999.90;;
7239;SDS011;3661;53.288;10.458;2023-07-29T07:31:56;1999.90;;;999.90;;
7239;SDS011;3661;53.288;10.458;2023-07-29T07:34:28;1999.90;;;999.90;;
7239;SDS011;3661;53.288;10.458;2023-07-29T07:37:01;1999.90;;;999.90;;
7239;SDS011;3661;53.288;10.458;2023-07-29T07:39:34;1999.90;;;999.90;;
7239;SDS011;3661;53.288;10.458;2023-07-29T07:42:06;1999.90;;;999.90;;
7239;SDS011;3661;53.288;10.458;2023-07-29T07:44:38;1999.90;;;999.90;;
7239;SDS011;3661;53.288;10.458;2023-07-29T07:47:11;1999.90;;;999.90;;
7239;SDS011;3661;53.288;10.458;2023-07-29T07:49:44;1999.90;;;999.90;;
7239;SDS011;3661;53.288;10.458;2023-07-29T07:52:16;1999.90;;;999.90;;
7239;SDS011;3661;53.288;10.458;2023-07-29T07:54:51;1999.90;;;999.90;;
7239;SDS011;3661;53.288;10.458;2023-07-29T07:57:23;1999.90;;;999.90;;
7239;SDS011;3661;53.288;10.458;2023-07-29T07:59:56;1999.90;;;999.90;;
7239;SDS011;3661;53.288;10.458;2023-07-29T08:02:29;1999.90;;;999.90;;
7239;SDS011;3661;53.288;10.458;2023-07-29T08:05:01;1999.90;;;999.90;;
7239;SDS011;3661;53.288;10.458;2023-07-29T08:07:34;1999.90;;;999.90;;
7239;SDS011;3661;53.288;10.458;2023-07-29T08:10:06;1999.90;;;999.90;;
7239;SDS011;3661;53.288;10.458;2023-07-29T08:12:42;1999.90;;;999.90;;
7239;SDS011;3661;53.288;10.458;2023-07-29T08:15:14;1999.90;;;999.90;;
7239;SDS011;3661;53.288;10.458;2023-07-29T08:17:47;1999.90;;;999.90;;
7239;SDS011;3661;53.288;10.458;2023-07-29T08:20:20;1999.90;;;999.90;;
7239;SDS011;3661;53.288;10.458;2023-07-29T08:22:52;1999.90;;;999.90;;
7239;SDS011;3661;53.288;10.458;2023-07-29T08:25:24;1999.90;;;999.90;;
7239;SDS011;3661;53.288;10.458;2023-07-29T08:27:56;1999.90;;;999.90;;
7239;SDS011;3661;53.288;10.458;2023-07-29T08:30:28;1999.90;;;999.90;;
7239;SDS011;3661;53.288;10.458;2023-07-29T08:33:02;1999.90;;;999.90;;
7239;SDS011;3661;53.288;10.458;2023-07-29T08:35:35;1999.90;;;999.90;;
7239;SDS011;3661;53.288;10.458;2023-07-29T08:38:08;1999.90;;;999.90;;
7239;SDS011;3661;53.288;10.458;2023-07-29T08:40:41;1999.90;;;999.90;;
7239;SDS011;3661;53.288;10.458;2023-07-29T08:43:16;1999.90;;;999.90;;
7239;SDS011;3661;53.288;10.458;2023-07-29T08:45:51;1999.90;;;999.90;;
7239;SDS011;3661;53.288;10.458;2023-07-29T08:48:28;1999.90;;;999.90;;
7239;SDS011;3661;53.288;10.458;2023-07-29T08:51:04;1999.90;;;999.90;;
7239;SDS011;3661;53.288;10.458;2023-07-29T08:53:39;1999.90;;;999.90;;
7239;SDS011;3661;53.288;10.458;2023-07-29T08:56:12;1999.90;;;999.90;;
7239;SDS011;3661;53.288;10.458;2023-07-29T08:58:46;1999.90;;;999.90;;
7239;SDS011;3661;53.288;10.458;2023-07-29T09:01:20;1999.90;;;999.90;;
7239;SDS011;3661;53.288;10.458;2023-07-29T09:03:54;1999.90;;;999.90;;
7239;SDS011;3661;53.288;10.458;2023-07-29T09:06:32;1999.90;;;999.90;;
7239;SDS011;3661;53.288;10.458;2023-07-29T09:09:07;1999.90;;;999.90;;
7239;SDS011;3661;53.288;10.458;2023-07-29T09:11:39;1999.90;;;999.90;;
7239;SDS011;3661;53.288;10.458;2023-07-29T09:14:20;1999.90;;;999.90;;
7239;SDS011;3661;53.288;10.458;2023-07-29T09:16:53;1999.90;;;999.90;;
7239;SDS011;3661;53.288;10.458;2023-07-29T09:19:28;1999.90;;;999.90;;
7239;SDS011;3661;53.288;10.458;2023-07-29T10:22:15;1999.90;;;999.90;;
7239;SDS011;3661;53.288;10.458;2023-07-29T10:24:51;1999.90;;;999.90;;
7239;SDS011;3661;53.288;10.458;2023-07-29T10:27:31;1999.90;;;999.90;;
7239;SDS011;3661;53.288;10.458;2023-07-29T10:30:10;1999.90;;;999.90;;
7239;SDS011;3661;53.288;10.458;2023-07-29T10:32:44;1999.90;;;999.90;;
7239;SDS011;3661;53.288;10.458;2023-07-29T10:35:18;1999.90;;;999.90;;
7239;SDS011;3661;53.288;10.458;2023-07-29T10:37:50;1999.90;;;999.90;;
7239;SDS011;3661;53.288;10.458;2023-07-29T10:40:23;1999.90;;;999.90;;
7239;SDS011;3661;53.288;10.458;2023-07-29T10:43:02;1999.90;;;999.90;;
7239;SDS011;3661;53.288;10.458;2023-07-29T10:45:40;1999.90;;;999.90;;
7239;SDS011;3661;53.288;10.458;2023-07-29T10:51:28;1999.90;;;999.90;;
7239;SDS011;3661;53.288;10.458;2023-07-29T10:54:03;1999.90;;;999.90;;
7239;SDS011;3661;53.288;10.458;2023-07-29T10:56:41;1999.90;;;999.90;;
7239;SDS011;3661;53.288;10.458;2023-07-29T11:02:15;1999.90;;;999.90;;
7239;SDS011;3661;53.288;10.458;2023-07-29T11:04:50;1999.90;;;999.90;;
7239;SDS011;3661;53.288;10.458;2023-07-29T11:07:23;1999.90;;;999.90;;
7239;SDS011;3661;53.288;10.458;2023-07-29T11:10:00;1999.90;;;999.90;;
7239;SDS011;3661;53.288;10.458;2023-07-29T11:12:41;1999.90;;;999.90;;
7239;SDS011;3661;53.288;10.458;2023-07-29T11:15:16;1999.90;;;999.90;;
7239;SDS011;3661;53.288;10.458;2023-07-29T11:17:51;1999.90;;;999.90;;
7239;SDS011;3661;53.288;10.458;2023-07-29T11:20:24;1999.90;;;999.90;;
7239;SDS011;3661;53.288;10.458;2023-07-29T11:23:01;1999.90;;;999.90;;
7239;SDS011;3661;53.288;10.458;2023-07-29T11:25:34;1999.90;;;999.90;;
7239;SDS011;3661;53.288;10.458;2023-07-29T11:28:06;1999.90;;;999.90;;
7239;SDS011;3661;53.288;10.458;2023-07-29T11:30:39;1999.90;;;999.90;;
7239;SDS011;3661;53.288;10.458;2023-07-29T11:33:11;1999.90;;;999.90;;
7239;SDS011;3661;53.288;10.458;2023-07-29T11:35:44;1999.90;;;999.90;;
7239;SDS011;3661;53.288;10.458;2023-07-29T11:38:18;1999.90;;;999.90;;
7239;SDS011;3661;53.288;10.458;2023-07-29T11:40:54;1999.90;;;999.90;;
7239;SDS011;3661;53.288;10.458;2023-07-29T11:43:27;1999.90;;;999.90;;
7239;SDS011;3661;53.288;10.458;2023-07-29T11:46:00;1999.90;;;999.90;;
7239;SDS011;3661;53.288;10.458;2023-07-29T11:48:33;1999.90;;;999.90;;
7239;SDS011;3661;53.288;10.458;2023-07-29T11:51:05;1999.90;;;999.90;;
7239;SDS011;3661;53.288;10.458;2023-07-29T11:53:42;1999.90;;;999.90;;
7239;SDS011;3661;53.288;10.458;2023-07-29T11:56:16;1999.90;;;999.90;;
7239;SDS011;3661;53.288;10.458;2023-07-29T11:58:49;1999.90;;;999.90;;
7239;SDS011;3661;53.288;10.458;2023-07-29T12:01:21;1999.90;;;999.90;;
7239;SDS011;3661;53.288;10.458;2023-07-29T12:03:54;1999.90;;;999.90;;
7239;SDS011;3661;53.288;10.458;2023-07-29T12:06:27;1999.90;;;999.90;;
7239;SDS011;3661;53.288;10.458;2023-07-29T12:09:02;1999.90;;;999.90;;
7239;SDS011;3661;53.288;10.458;2023-07-29T12:11:35;1999.90;;;999.90;;
7239;SDS011;3661;53.288;10.458;2023-07-29T12:14:08;1999.90;;;999.90;;
7239;SDS011;3661;53.288;10.458;2023-07-29T12:16:40;1999.90;;;999.90;;
7239;SDS011;3661;53.288;10.458;2023-07-29T12:19:12;1999.90;;;999.90;;
7239;SDS011;3661;53.288;10.458;2023-07-29T12:21:45;1999.90;;;999.90;;
7239;SDS011;3661;53.288;10.458;2023-07-29T12:24:18;1999.90;;;999.90;;
7239;SDS011;3661;53.288;10.458;2023-07-29T12:26:50;1999.90;;;999.90;;
7239;SDS011;3661;53.288;10.458;2023-07-29T12:29:24;1999.90;;;999.90;;
7239;SDS011;3661;53.288;10.458;2023-07-29T12:31:56;1999.90;;;999.90;;
7239;SDS011;3661;53.288;10.458;2023-07-29T12:34:30;1999.90;;;999.90;;
7239;SDS011;3661;53.288;10.458;2023-07-29T12:37:03;1999.90;;;999.90;;
7239;SDS011;3661;53.288;10.458;2023-07-29T12:39:40;1999.90;;;999.90;;
7239;SDS011;3661;53.288;10.458;2023-07-29T12:42:12;1999.90;;;999.90;;
7239;SDS011;3661;53.288;10.458;2023-07-29T12:44:46;1999.90;;;999.90;;
7239;SDS011;3661;53.288;10.458;2023-07-29T12:47:18;1999.90;;;999.90;;
7239;SDS011;3661;53.288;10.458;2023-07-29T12:49:51;1999.90;;;999.90;;
7239;SDS011;3661;53.288;10.458;2023-07-29T12:52:23;1999.90;;;999.90;;
7239;SDS011;3661;53.288;10.458;2023-07-29T12:54:56;1999.90;;;999.90;;
7239;SDS011;3661;53.288;10.458;2023-07-29T12:57:28;1999.90;;;999.90;;
7239;SDS011;3661;53.288;10.458;2023-07-29T13:00:01;1999.90;;;999.90;;
7239;SDS011;3661;53.288;10.458;2023-07-29T13:02:34;1999.90;;;999.90;;
7239;SDS011;3661;53.288;10.458;2023-07-29T13:05:08;1999.90;;;999.90;;
7239;SDS011;3661;53.288;10.458;2023-07-29T13:07:42;1999.90;;;999.90;;
7239;SDS011;3661;53.288;10.458;2023-07-29T13:10:16;1999.90;;;999.90;;
7239;SDS011;3661;53.288;10.458;2023-07-29T13:12:49;1999.90;;;999.90;;
7239;SDS011;3661;53.288;10.458;2023-07-29T13:15:21;1999.90;;;999.90;;
7239;SDS011;3661;53.288;10.458;2023-07-29T13:17:53;1999.90;;;999.90;;
7239;SDS011;3661;53.288;10.458;2023-07-29T13:20:26;1999.90;;;999.90;;
7239;SDS011;3661;53.288;10.458;2023-07-29T13:22:59;1999.90;;;999.90;;
7239;SDS011;3661;53.288;10.458;2023-07-29T13:25:34;1999.90;;;999.90;;
7239;SDS011;3661;53.288;10.458;2023-07-29T13:28:06;1999.90;;;999.90;;
7239;SDS011;3661;53.288;10.458;2023-07-29T13:30:38;1999.90;;;999.90;;
7239;SDS011;3661;53.288;10.458;2023-07-29T13:33:10;1999.90;;;999.90;;
7239;SDS011;3661;53.288;10.458;2023-07-29T13:35:42;1999.90;;;999.90;;
7239;SDS011;3661;53.288;10.458;2023-07-29T13:38:15;1999.90;;;999.90;;
7239;SDS011;3661;53.288;10.458;2023-07-29T13:40:51;1999.90;;;999.90;;
7239;SDS011;3661;53.288;10.458;2023-07-29T13:43:23;1999.90;;;999.90;;
7239;SDS011;3661;53.288;10.458;2023-07-29T13:45:55;1999.90;;;999.90;;
7239;SDS011;3661;53.288;10.458;2023-07-29T13:48:27;1999.90;;;999.90;;
7239;SDS011;3661;53.288;10.458;2023-07-29T13:50:59;1999.90;;;999.90;;
7239;SDS011;3661;53.288;10.458;2023-07-29T13:53:32;1999.90;;;999.90;;
7239;SDS011;3661;53.288;10.458;2023-07-29T13:56:05;1999.90;;;999.90;;
7239;SDS011;3661;53.288;10.458;2023-07-29T13:58:37;1999.90;;;999.90;;
7239;SDS011;3661;53.288;10.458;2023-07-29T14:01:09;1999.90;;;999.90;;
7239;SDS011;3661;53.288;10.458;2023-07-29T14:03:41;1999.90;;;999.90;;
7239;SDS011;3661;53.288;10.458;2023-07-29T14:06:14;1999.90;;;999.90;;
7239;SDS011;3661;53.288;10.458;2023-07-29T14:08:46;1999.90;;;999.90;;
7239;SDS011;3661;53.288;10.458;2023-07-29T14:11:19;1999.90;;;999.90;;
7239;SDS011;3661;53.288;10.458;2023-07-29T14:13:51;1999.90;;;999.90;;
7239;SDS011;3661;53.288;10.458;2023-07-29T14:16:23;1999.90;;;999.90;;
7239;SDS011;3661;53.288;10.458;2023-07-29T14:18:56;1999.90;;;999.90;;
7239;SDS011;3661;53.288;10.458;2023-07-29T14:21:28;1999.90;;;999.90;;
7239;SDS011;3661;53.288;10.458;2023-07-29T14:24:01;1999.90;;;999.90;;
7239;SDS011;3661;53.288;10.458;2023-07-29T14:26:34;1999.90;;;999.90;;
7239;SDS011;3661;53.288;10.458;2023-07-29T14:29:06;1999.90;;;999.90;;
7239;SDS011;3661;53.288;10.458;2023-07-29T14:31:40;1999.90;;;999.90;;
7239;SDS011;3661;53.288;10.458;2023-07-29T14:34:12;1999.90;;;999.90;;
7239;SDS011;3661;53.288;10.458;2023-07-29T14:36:44;1999.90;;;999.90;;
7239;SDS011;3661;53.288;10.458;2023-07-29T14:39:17;1999.90;;;999.90;;
7239;SDS011;3661;53.288;10.458;2023-07-29T14:41:50;1999.90;;;999.90;;
7239;SDS011;3661;53.288;10.458;2023-07-29T14:44:22;1999.90;;;999.90;;
7239;SDS011;3661;53.288;10.458;2023-07-29T14:46:55;1999.90;;;999.90;;
7239;SDS011;3661;53.288;10.458;2023-07-29T14:49:27;1999.90;;;999.90;;
7239;SDS011;3661;53.288;10.458;2023-07-29T14:51:59;1999.90;;;999.90;;
7239;SDS011;3661;53.288;10.458;2023-07-29T14:54:32;1999.90;;;999.90;;
7239;SDS011;3661;53.288;10.458;2023-07-29T14:57:06;1999.90;;;999.90;;
7239;SDS011;3661;53.288;10.458;2023-07-29T14:59:38;1999.90;;;999.90;;
7239;SDS011;3661;53.288;10.458;2023-07-29T15:02:10;1999.90;;;999.90;;
7239;SDS011;3661;53.288;10.458;2023-07-29T15:04:43;1999.90;;;999.90;;
7239;SDS011;3661;53.288;10.458;2023-07-29T15:07:15;1999.90;;;999.90;;
7239;SDS011;3661;53.288;10.458;2023-07-29T15:09:49;1999.90;;;999.90;;
7239;SDS011;3661;53.288;10.458;2023-07-29T15:12:23;1999.90;;;999.90;;
7239;SDS011;3661;53.288;10.458;2023-07-29T15:14:55;1999.90;;;999.90;;
7239;SDS011;3661;53.288;10.458;2023-07-29T15:17:27;1999.90;;;999.90;;
7239;SDS011;3661;53.288;10.458;2023-07-29T15:19:59;1999.90;;;999.90;;
7239;SDS011;3661;53.288;10.458;2023-07-29T15:22:33;1999.90;;;999.90;;
7239;SDS011;3661;53.288;10.458;2023-07-29T15:25:05;1999.90;;;999.90;;
7239;SDS011;3661;53.288;10.458;2023-07-29T15:27:41;1999.90;;;999.90;;
7239;SDS011;3661;53.288;10.458;2023-07-29T15:30:13;1999.90;;;999.90;;
7239;SDS011;3661;53.288;10.458;2023-07-29T15:32:45;1999.90;;;999.90;;
7239;SDS011;3661;53.288;10.458;2023-07-29T15:35:17;1999.90;;;999.90;;
7239;SDS011;3661;53.288;10.458;2023-07-29T15:37:49;1999.90;;;999.90;;